createdAt,value
2018-02-11T00:00:25.856Z,0.52
2018-02-11T00:01:27.083Z,0.51
2018-02-11T00:02:26.877Z,0.54
2018-02-11T00:03:27.210Z,0.53
2018-02-11T00:04:26.860Z,0.51
2018-02-11T00:05:26.967Z,0.49
2018-02-11T00:06:26.968Z,0.51
2018-02-11T00:07:27.075Z,0.52
2018-02-11T00:08:25.812Z,0.49
2018-02-11T00:09:25.797Z,0.51
2018-02-11T00:10:25.845Z,0.46
2018-02-11T00:11:26.979Z,0.51
2018-02-11T00:12:25.767Z,0.48
2018-02-11T00:13:25.805Z,0.47
2018-02-11T00:14:26.919Z,0.47
2018-02-11T00:15:26.968Z,0.5
2018-02-11T00:16:26.862Z,0.5
2018-02-11T00:17:26.885Z,0.49
2018-02-11T00:18:25.827Z,0.48
2018-02-11T00:19:26.983Z,0.45
2018-02-11T00:20:26.975Z,0.49
2018-02-11T00:21:27.046Z,0.49
2018-02-11T00:22:26.989Z,0.49
2018-02-11T00:23:25.836Z,0.48
2018-02-11T00:24:27.082Z,0.49
2018-02-11T00:25:27.116Z,0.47
2018-02-11T00:26:25.840Z,0.51
2018-02-11T00:27:27.444Z,0.5
2018-02-11T00:28:27.232Z,0.51
2018-02-11T00:29:27.112Z,0.47
2018-02-11T00:30:26.974Z,0.49
2018-02-11T00:31:27.117Z,0.53
2018-02-11T00:32:27.000Z,0.46
2018-02-11T00:33:27.143Z,0.47
2018-02-11T00:34:27.008Z,0.49
2018-02-11T00:35:27.074Z,0.47
2018-02-11T00:36:27.048Z,0.52
2018-02-11T00:37:26.916Z,0.5
2018-02-11T00:38:27.223Z,0.44
2018-02-11T00:39:25.187Z,0.5
2018-02-11T00:40:25.009Z,0.51
2018-02-11T00:41:25.052Z,0.54
2018-02-11T00:42:25.040Z,0.5
2018-02-11T00:43:25.120Z,0.48
2018-02-11T00:44:25.094Z,0.5
2018-02-11T00:45:25.035Z,0.5
2018-02-11T00:46:25.066Z,0.47
2018-02-11T00:47:25.180Z,0.49
2018-02-11T00:48:25.158Z,0.47
2018-02-11T00:49:25.134Z,0.48
2018-02-11T00:50:24.977Z,0.47
2018-02-11T00:51:25.068Z,0.45
2018-02-11T00:52:25.117Z,0.45
2018-02-11T00:53:25.019Z,0.44
2018-02-11T00:54:25.024Z,0.4
2018-02-11T00:55:25.053Z,0.43
2018-02-11T00:56:25.061Z,0.41
2018-02-11T00:57:25.099Z,0.41
2018-02-11T00:58:25.034Z,0.4
2018-02-11T00:59:25.174Z,0.43
2018-02-11T01:00:25.082Z,0.37
2018-02-11T01:01:25.233Z,0.41
2018-02-11T01:02:25.129Z,0.37
2018-02-11T01:03:24.981Z,0.39
2018-02-11T01:04:25.052Z,0.34
2018-02-11T01:05:25.138Z,0.35
2018-02-11T01:06:25.012Z,0.38
2018-02-11T01:07:25.168Z,0.35
2018-02-11T01:08:25.133Z,0.37
2018-02-11T01:09:25.128Z,0.32
2018-02-11T01:10:25.301Z,0.31
2018-02-11T01:11:25.358Z,0.3
2018-02-11T01:12:25.302Z,0.3
2018-02-11T01:13:25.248Z,0.27
2018-02-11T01:14:25.403Z,0.27
2018-02-11T01:15:25.271Z,0.25
2018-02-11T01:16:25.327Z,0.23
2018-02-11T01:17:25.312Z,0.2
2018-02-11T01:18:25.344Z,0.18
2018-02-11T01:19:25.191Z,0.19
2018-02-11T01:20:25.339Z,0.15
2018-02-11T01:21:25.304Z,0.16
2018-02-11T01:22:25.197Z,0.15
2018-02-11T01:23:25.361Z,0.15
2018-02-11T01:24:25.202Z,0.12
2018-02-11T01:25:25.290Z,0.14
2018-02-11T01:26:25.297Z,0.15
2018-02-11T01:27:25.295Z,0.08
2018-02-11T01:28:25.336Z,0.07
2018-02-11T01:29:25.278Z,0.07
2018-02-11T01:30:25.379Z,0.06
2018-02-11T01:31:39.331Z,0.03
2018-02-11T01:32:25.389Z,0.07
2018-02-11T01:33:25.384Z,0.02
2018-02-11T01:34:25.241Z,0.02
2018-02-11T01:35:25.309Z,0.03
2018-02-11T01:36:25.269Z,0.03
2018-02-11T01:37:25.301Z,0.04
2018-02-11T01:38:25.330Z,0
2018-02-11T01:39:25.276Z,-0.01
2018-02-11T01:40:25.282Z,-0.02
2018-02-11T01:41:25.177Z,-0.02
2018-02-11T01:42:25.178Z,-0.03
2018-02-11T01:43:25.159Z,-0.03
2018-02-11T01:44:25.085Z,-0.01
2018-02-11T01:45:25.103Z,-0.03
2018-02-11T01:46:25.109Z,-0.05
2018-02-11T01:47:25.084Z,-0.06
2018-02-11T01:48:25.113Z,-0.06
2018-02-11T01:49:25.153Z,-0.08
2018-02-11T01:50:25.192Z,-0.07
2018-02-11T01:51:25.088Z,-0.1
2018-02-11T01:52:25.196Z,-0.08
2018-02-11T01:53:25.044Z,-0.13
2018-02-11T01:54:25.121Z,-0.11
2018-02-11T01:55:25.113Z,-0.09
2018-02-11T01:56:25.087Z,-0.09
2018-02-11T01:57:25.176Z,-0.11
2018-02-11T01:58:25.320Z,-0.15
2018-02-11T01:59:25.226Z,-0.14
2018-02-11T02:00:25.118Z,-0.13
2018-02-11T02:01:25.059Z,-0.09
2018-02-11T02:02:25.056Z,-0.14
2018-02-11T02:03:25.075Z,-0.15
2018-02-11T02:04:25.212Z,-0.18
2018-02-11T02:05:25.258Z,-0.2
2018-02-11T02:06:25.065Z,-0.2
2018-02-11T02:07:25.210Z,-0.19
2018-02-11T02:08:25.229Z,-0.25
2018-02-11T02:09:25.262Z,-0.21
2018-02-11T02:10:25.087Z,-0.22
2018-02-11T02:11:25.214Z,-0.22
2018-02-11T02:12:25.140Z,-0.23
2018-02-11T02:13:25.206Z,-0.23
2018-02-11T02:14:25.270Z,-0.24
2018-02-11T02:15:25.160Z,-0.3
2018-02-11T02:16:25.223Z,-0.29
2018-02-11T02:17:25.158Z,-0.27
2018-02-11T02:18:25.298Z,-0.29
2018-02-11T02:19:25.274Z,-0.32
2018-02-11T02:20:25.224Z,-0.29
2018-02-11T02:21:25.130Z,-0.33
2018-02-11T02:22:25.195Z,-0.3
2018-02-11T02:23:25.204Z,-0.3
2018-02-11T02:24:25.164Z,-0.32
2018-02-11T02:25:25.144Z,-0.31
2018-02-11T02:26:25.194Z,-0.31
2018-02-11T02:27:25.178Z,-0.28
2018-02-11T02:28:25.327Z,-0.31
2018-02-11T02:29:25.286Z,-0.33
2018-02-11T02:30:25.296Z,-0.3
2018-02-11T02:31:25.155Z,-0.26
2018-02-11T02:32:25.129Z,-0.26
2018-02-11T02:33:25.316Z,-0.24
2018-02-11T02:34:25.166Z,-0.29
2018-02-11T02:35:25.248Z,-0.28
2018-02-11T02:36:25.434Z,-0.26
2018-02-11T02:37:25.328Z,-0.28
2018-02-11T02:38:25.294Z,-0.3
2018-02-11T02:41:44.135Z,-0.28
2018-02-11T02:42:24.885Z,-0.31
2018-02-11T02:43:25.015Z,-0.29
2018-02-11T02:44:24.986Z,-0.26
2018-02-11T02:45:24.985Z,-0.28
2018-02-11T02:46:24.880Z,-0.28
2018-02-11T02:47:24.847Z,-0.26
2018-02-11T02:48:24.879Z,-0.27
2018-02-11T02:49:25.017Z,-0.27
2018-02-11T02:50:24.952Z,-0.28
2018-02-11T02:51:25.004Z,-0.28
2018-02-11T02:52:24.972Z,-0.25
2018-02-11T02:53:24.976Z,-0.28
2018-02-11T02:54:25.059Z,-0.27
2018-02-11T02:55:24.920Z,-0.29
2018-02-11T02:56:24.922Z,-0.28
2018-02-11T02:57:24.972Z,-0.29
2018-02-11T02:58:25.059Z,-0.29
2018-02-11T02:59:24.916Z,-0.26
2018-02-11T03:00:24.913Z,-0.29
2018-02-11T03:01:25.024Z,-0.31
2018-02-11T03:02:24.991Z,-0.3
2018-02-11T03:03:25.009Z,-0.31
2018-02-11T03:04:25.036Z,-0.31
2018-02-11T03:05:24.877Z,-0.28
2018-02-11T03:06:24.916Z,-0.28
2018-02-11T03:07:24.830Z,-0.29
2018-02-11T03:08:24.940Z,-0.33
2018-02-11T03:09:24.983Z,-0.32
2018-02-11T03:10:24.840Z,-0.32
2018-02-11T03:11:25.078Z,-0.34
2018-02-11T03:12:25.026Z,-0.34
2018-02-11T03:13:24.917Z,-0.33
2018-02-11T03:14:25.023Z,-0.38
2018-02-11T03:15:25.047Z,-0.4
2018-02-11T03:16:24.913Z,-0.43
2018-02-11T03:17:25.125Z,-0.38
2018-02-11T03:18:24.979Z,-0.39
2018-02-11T03:19:25.114Z,-0.4
2018-02-11T03:20:25.013Z,-0.45
2018-02-11T03:21:25.080Z,-0.41
2018-02-11T03:22:25.000Z,-0.44
2018-02-11T03:23:25.143Z,-0.5
2018-02-11T03:24:25.014Z,-0.44
2018-02-11T03:25:25.150Z,-0.49
2018-02-11T03:26:25.080Z,-0.45
2018-02-11T03:27:25.027Z,-0.46
2018-02-11T03:28:25.042Z,-0.46
2018-02-11T03:29:25.074Z,-0.49
2018-02-11T03:30:25.093Z,-0.5
2018-02-11T03:31:24.973Z,-0.53
2018-02-11T03:32:24.942Z,-0.5
2018-02-11T03:33:25.075Z,-0.52
2018-02-11T03:34:25.093Z,-0.51
2018-02-11T03:35:24.990Z,-0.48
2018-02-11T03:36:25.045Z,-0.5
2018-02-11T03:37:25.103Z,-0.49
2018-02-11T03:38:25.079Z,-0.48
2018-02-11T03:39:25.116Z,-0.5
2018-02-11T03:40:25.071Z,-0.51
2018-02-11T03:41:24.985Z,-0.55
2018-02-11T03:42:25.074Z,-0.55
2018-02-11T03:43:25.074Z,-0.54
2018-02-11T03:44:24.995Z,-0.55
2018-02-11T03:45:25.001Z,-0.55
2018-02-11T03:46:24.932Z,-0.53
2018-02-11T03:47:24.985Z,-0.54
2018-02-11T03:48:24.936Z,-0.55
2018-02-11T03:49:25.094Z,-0.54
2018-02-11T03:50:24.945Z,-0.55
2018-02-11T03:51:24.973Z,-0.55
2018-02-11T03:52:25.104Z,-0.57
2018-02-11T03:53:25.129Z,-0.57
2018-02-11T03:54:25.237Z,-0.57
2018-02-11T03:55:24.994Z,-0.56
2018-02-11T03:56:25.019Z,-0.6
2018-02-11T03:57:24.981Z,-0.56
2018-02-11T03:58:25.102Z,-0.61
2018-02-11T03:59:25.122Z,-0.61
2018-02-11T04:00:25.182Z,-0.64
2018-02-11T04:01:25.090Z,-0.63
2018-02-11T04:02:25.043Z,-0.6
2018-02-11T04:03:24.991Z,-0.61
2018-02-11T04:04:25.087Z,-0.61
2018-02-11T04:05:25.018Z,-0.61
2018-02-11T04:06:25.037Z,-0.64
2018-02-11T04:07:25.071Z,-0.62
2018-02-11T04:08:24.970Z,-0.59
2018-02-11T04:09:25.055Z,-0.62
2018-02-11T04:10:25.060Z,-0.63
2018-02-11T04:11:25.040Z,-0.62
2018-02-11T04:12:25.212Z,-0.65
2018-02-11T04:13:25.033Z,-0.64
2018-02-11T04:14:24.922Z,-0.62
2018-02-11T04:15:25.847Z,-0.61
2018-02-11T04:16:26.001Z,-0.63
2018-02-11T04:17:25.843Z,-0.62
2018-02-11T04:18:25.766Z,-0.65
2018-02-11T04:20:25.869Z,-0.65
2018-02-11T04:21:25.878Z,-0.64
2018-02-11T04:22:25.833Z,-0.68
2018-02-11T04:23:25.965Z,-0.69
2018-02-11T04:24:25.901Z,-0.69
2018-02-11T04:25:25.874Z,-0.69
2018-02-11T04:26:25.817Z,-0.7
2018-02-11T04:27:25.871Z,-0.7
2018-02-11T04:28:25.742Z,-0.68
2018-02-11T04:29:25.841Z,-0.67
2018-02-11T04:30:25.876Z,-0.66
2018-02-11T04:31:25.855Z,-0.73
2018-02-11T04:32:25.833Z,-0.75
2018-02-11T04:33:25.864Z,-0.78
2018-02-11T04:34:25.844Z,-0.78
2018-02-11T04:35:25.779Z,-0.8
2018-02-11T04:36:25.775Z,-0.76
2018-02-11T04:37:25.828Z,-0.84
2018-02-11T04:38:25.815Z,-0.76
2018-02-11T04:39:25.868Z,-0.8
2018-02-11T04:40:25.909Z,-0.77
2018-02-11T04:41:25.818Z,-0.81
2018-02-11T04:42:25.751Z,-0.8
2018-02-11T04:43:25.720Z,-0.81
2018-02-11T04:44:25.905Z,-0.8
2018-02-11T04:45:25.757Z,-0.82
2018-02-11T04:46:25.844Z,-0.84
2018-02-11T04:47:25.922Z,-0.88
2018-02-11T04:48:25.754Z,-0.84
2018-02-11T04:49:25.695Z,-0.87
2018-02-11T04:50:25.746Z,-0.81
2018-02-11T04:51:25.886Z,-0.79
2018-02-11T04:52:25.854Z,-0.81
2018-02-11T04:53:25.827Z,-0.81
2018-02-11T04:54:25.892Z,-0.82
2018-02-11T04:55:25.849Z,-0.84
2018-02-11T04:56:25.858Z,-0.82
2018-02-11T04:57:25.902Z,-0.84
2018-02-11T04:58:25.780Z,-0.82
2018-02-11T04:59:25.780Z,-0.83
2018-02-11T05:00:25.797Z,-0.82
2018-02-11T05:01:25.822Z,-0.82
2018-02-11T05:02:25.765Z,-0.81
2018-02-11T05:03:25.941Z,-0.82
2018-02-11T05:04:25.764Z,-0.84
2018-02-11T05:05:25.730Z,-0.88
2018-02-11T05:06:25.840Z,-0.89
2018-02-11T05:07:25.867Z,-0.88
2018-02-11T05:08:25.888Z,-0.89
2018-02-11T05:09:25.769Z,-0.9
2018-02-11T05:10:25.896Z,-0.88
2018-02-11T05:11:25.846Z,-0.89
2018-02-11T05:12:25.823Z,-0.9
2018-02-11T05:13:25.830Z,-0.88
2018-02-11T05:14:25.893Z,-0.97
2018-02-11T05:15:24.917Z,-0.91
2018-02-11T05:16:24.957Z,-0.94
2018-02-11T05:17:24.893Z,-0.97
2018-02-11T05:18:24.924Z,-0.94
2018-02-11T05:19:24.962Z,-0.94
2018-02-11T05:20:25.025Z,-0.94
2018-02-11T05:21:24.962Z,-0.93
2018-02-11T05:22:25.005Z,-0.92
2018-02-11T05:23:24.978Z,-0.99
2018-02-11T05:24:24.910Z,-0.98
2018-02-11T05:25:25.046Z,-1
2018-02-11T05:26:25.018Z,-1.01
2018-02-11T05:27:25.061Z,-1.02
2018-02-11T05:28:25.309Z,-1.05
2018-02-11T05:29:25.088Z,-1.06
2018-02-11T05:30:25.080Z,-1.01
2018-02-11T05:31:25.000Z,-1.06
2018-02-11T05:32:24.952Z,-1.08
2018-02-11T05:33:24.901Z,-1.07
2018-02-11T05:34:24.878Z,-1.08
2018-02-11T05:35:24.927Z,-1.11
2018-02-11T05:36:24.957Z,-1.12
2018-02-11T05:39:36.629Z,-1.06
2018-02-11T05:40:25.006Z,-1.03
2018-02-11T05:41:25.047Z,-1.07
2018-02-11T05:42:25.035Z,-1.07
2018-02-11T05:43:24.925Z,-1.13
2018-02-11T05:44:25.000Z,-1.1
2018-02-11T05:45:24.904Z,-1.1
2018-02-11T05:46:25.639Z,-1.11
2018-02-11T05:47:25.729Z,-1.12
2018-02-11T05:48:25.660Z,-1.12
2018-02-11T05:49:25.763Z,-1.08
2018-02-11T05:50:25.678Z,-1.12
2018-02-11T05:51:25.685Z,-1.1
2018-02-11T05:52:25.839Z,-1.15
2018-02-11T05:53:25.770Z,-1.1
2018-02-11T05:54:25.781Z,-1.15
2018-02-11T05:55:25.700Z,-1.16
2018-02-11T05:56:25.613Z,-1.2
2018-02-11T05:57:25.684Z,-1.16
2018-02-11T05:58:25.700Z,-1.19
2018-02-11T05:59:25.733Z,-1.15
2018-02-11T06:00:25.760Z,-1.16
2018-02-11T06:01:25.676Z,-1.19
2018-02-11T06:02:25.652Z,-1.23
2018-02-11T06:03:25.822Z,-1.24
2018-02-11T06:04:25.724Z,-1.21
2018-02-11T06:05:25.790Z,-1.23
2018-02-11T06:06:25.727Z,-1.21
2018-02-11T06:07:25.765Z,-1.26
2018-02-11T06:08:25.647Z,-1.29
2018-02-11T06:09:25.801Z,-1.25
2018-02-11T06:10:25.684Z,-1.3
2018-02-11T06:11:25.628Z,-1.37
2018-02-11T06:12:25.752Z,-1.34
2018-02-11T06:13:25.750Z,-1.33
2018-02-11T06:14:25.733Z,-1.44
2018-02-11T06:15:25.728Z,-1.46
2018-02-11T06:16:25.507Z,-1.43
2018-02-11T06:17:25.592Z,-1.43
2018-02-11T06:18:25.503Z,-1.36
2018-02-11T06:19:25.663Z,-1.37
2018-02-11T06:20:25.660Z,-1.38
2018-02-11T06:21:25.535Z,-1.36
2018-02-11T06:22:25.593Z,-1.33
2018-02-11T06:23:25.590Z,-1.42
2018-02-11T06:24:25.525Z,-1.38
2018-02-11T06:25:25.627Z,-1.38
2018-02-11T06:26:25.561Z,-1.43
2018-02-11T06:27:25.536Z,-1.41
2018-02-11T06:28:25.499Z,-1.42
2018-02-11T06:29:25.610Z,-1.48
2018-02-11T06:30:25.565Z,-1.48
2018-02-11T06:31:25.638Z,-1.51
2018-02-11T06:32:25.542Z,-1.42
2018-02-11T06:33:25.638Z,-1.43
2018-02-11T06:34:25.652Z,-1.55
2018-02-11T06:35:25.549Z,-1.51
2018-02-11T06:36:25.484Z,-1.54
2018-02-11T06:37:25.500Z,-1.5
2018-02-11T06:38:25.515Z,-1.42
2018-02-11T06:39:25.543Z,-1.44
2018-02-11T06:40:25.593Z,-1.48
2018-02-11T06:41:25.546Z,-1.44
2018-02-11T06:42:25.558Z,-1.43
2018-02-11T06:43:25.616Z,-1.36
2018-02-11T06:44:25.683Z,-1.45
2018-02-11T06:45:25.792Z,-1.32
2018-02-11T06:46:25.843Z,-1.39
2018-02-11T06:47:25.817Z,-1.37
2018-02-11T06:48:25.751Z,-1.28
2018-02-11T06:49:25.784Z,-1.38
2018-02-11T06:50:25.716Z,-1.27
2018-02-11T06:51:25.719Z,-1.27
2018-02-11T06:52:25.813Z,-1.27
2018-02-11T06:53:25.834Z,-1.36
2018-02-11T06:54:25.807Z,-1.46
2018-02-11T06:55:25.767Z,-1.34
2018-02-11T06:56:26.189Z,-1.39
2018-02-11T06:57:25.825Z,-1.43
2018-02-11T06:58:25.762Z,-1.42
2018-02-11T06:59:25.828Z,-1.51
2018-02-11T07:00:25.686Z,-1.5
2018-02-11T07:01:25.849Z,-1.47
2018-02-11T07:02:25.765Z,-1.57
2018-02-11T07:03:25.872Z,-1.62
2018-02-11T07:04:25.783Z,-1.57
2018-02-11T07:05:25.756Z,-1.5
2018-02-11T07:06:25.882Z,-1.57
2018-02-11T07:07:25.828Z,-1.58
2018-02-11T07:08:25.738Z,-1.57
2018-02-11T07:09:25.729Z,-1.59
2018-02-11T07:10:25.664Z,-1.48
2018-02-11T07:11:25.782Z,-1.55
2018-02-11T07:12:25.782Z,-1.63
2018-02-11T07:13:25.746Z,-1.63
2018-02-11T07:14:25.697Z,-1.65
2018-02-11T07:15:25.781Z,-1.64
2018-02-11T07:16:25.705Z,-1.68
2018-02-11T07:17:25.660Z,-1.67
2018-02-11T07:18:25.691Z,-1.63
2018-02-11T07:19:25.500Z,-1.65
2018-02-11T07:20:25.589Z,-1.67
2018-02-11T07:21:25.593Z,-1.78
2018-02-11T07:22:25.613Z,-1.68
2018-02-11T07:23:25.559Z,-1.61
2018-02-11T07:24:25.603Z,-1.65
2018-02-11T07:25:25.560Z,-1.6
2018-02-11T07:26:25.620Z,-1.6
2018-02-11T07:27:25.749Z,-1.54
2018-02-11T07:28:25.642Z,-1.55
2018-02-11T07:29:25.614Z,-1.66
2018-02-11T07:30:25.780Z,-1.56
2018-02-11T07:31:25.696Z,-1.6
2018-02-11T07:32:25.701Z,-1.67
2018-02-11T07:33:25.589Z,-1.6
2018-02-11T07:34:25.778Z,-1.53
2018-02-11T07:35:25.826Z,-1.6
2018-02-11T07:36:25.566Z,-1.48
2018-02-11T07:37:25.760Z,-1.45
2018-02-11T07:38:25.611Z,-1.5
2018-02-11T07:39:25.535Z,-1.59
2018-02-11T07:40:25.562Z,-1.53
2018-02-11T07:41:25.670Z,-1.5
2018-02-11T07:42:25.822Z,-1.48
2018-02-11T07:43:25.529Z,-1.65
2018-02-11T07:44:25.529Z,-1.65
2018-02-11T07:45:25.646Z,-1.62
2018-02-11T07:46:25.760Z,-1.58
2018-02-11T07:47:25.920Z,-1.56
2018-02-11T07:48:25.860Z,-1.62
2018-02-11T07:49:25.766Z,-1.6
2018-02-11T07:50:25.622Z,-1.56
2018-02-11T07:51:25.846Z,-1.53
2018-02-11T07:52:25.774Z,-1.54
2018-02-11T07:53:25.833Z,-1.53
2018-02-11T07:54:25.774Z,-1.59
2018-02-11T07:55:25.808Z,-1.61
2018-02-11T07:56:26.108Z,-1.52
2018-02-11T07:57:25.969Z,-1.61
2018-02-11T07:58:25.816Z,-1.75
2018-02-11T07:59:25.793Z,-1.62
2018-02-11T08:00:25.954Z,-1.56
2018-02-11T08:01:25.785Z,-1.71
2018-02-11T08:02:25.760Z,-1.53
2018-02-11T08:03:25.787Z,-1.58
2018-02-11T08:04:25.862Z,-1.53
2018-02-11T08:05:25.785Z,-1.55
2018-02-11T08:06:25.984Z,-1.62
2018-02-11T08:07:25.668Z,-1.72
2018-02-11T08:08:25.620Z,-1.68
2018-02-11T08:09:25.749Z,-1.56
2018-02-11T08:10:25.840Z,-1.6
2018-02-11T08:11:25.784Z,-1.48
2018-02-11T08:12:25.756Z,-1.53
2018-02-11T08:13:25.829Z,-1.65
2018-02-11T08:14:25.787Z,-1.53
2018-02-11T08:15:25.779Z,-1.67
2018-02-11T08:16:25.736Z,-1.68
2018-02-11T08:17:26.049Z,-1.69
2018-02-11T08:18:26.079Z,-1.71
2018-02-11T08:19:26.092Z,-1.74
2018-02-11T08:20:25.921Z,-1.87
2018-02-11T08:21:25.989Z,-1.69
2018-02-11T08:22:25.991Z,-1.81
2018-02-11T08:23:25.973Z,-1.83
2018-02-11T08:24:26.018Z,-1.82
2018-02-11T08:25:25.908Z,-1.81
2018-02-11T08:26:26.082Z,-1.81
2018-02-11T08:27:25.988Z,-1.89
2018-02-11T08:28:26.005Z,-1.8
2018-02-11T08:29:25.866Z,-1.97
2018-02-11T08:30:26.155Z,-1.91
2018-02-11T08:31:25.917Z,-1.89
2018-02-11T08:32:25.970Z,-1.78
2018-02-11T08:33:25.978Z,-1.74
2018-02-11T08:34:25.972Z,-1.81
2018-02-11T08:35:26.078Z,-1.92
2018-02-11T08:36:25.951Z,-1.97
2018-02-11T08:37:25.962Z,-1.83
2018-02-11T08:38:26.053Z,-1.72
2018-02-11T08:39:25.971Z,-1.89
2018-02-11T08:40:25.856Z,-1.98
2018-02-11T08:41:25.823Z,-1.85
2018-02-11T08:42:25.977Z,-1.86
2018-02-11T08:43:26.233Z,-1.59
2018-02-11T08:44:25.878Z,-1.52
2018-02-11T08:45:26.020Z,-1.39
2018-02-11T08:46:25.910Z,-1.45
2018-02-11T08:47:26.052Z,-1.36
2018-02-11T08:48:24.983Z,-1.25
2018-02-11T08:49:24.973Z,-1.07
2018-02-11T08:50:25.021Z,-1.07
2018-02-11T08:51:24.975Z,-1.16
2018-02-11T08:52:25.072Z,-1.07
2018-02-11T08:53:24.844Z,-1.07
2018-02-11T08:54:24.990Z,-1.04
2018-02-11T08:55:24.943Z,-1.11
2018-02-11T08:56:24.889Z,-1.17
2018-02-11T08:57:24.897Z,-1.21
2018-02-11T08:58:24.934Z,-1.22
2018-02-11T08:59:24.976Z,-1.18
2018-02-11T09:00:25.174Z,-1.16
2018-02-11T09:01:24.870Z,-1.1
2018-02-11T09:02:25.009Z,-1.18
2018-02-11T09:03:24.939Z,-1.23
2018-02-11T09:04:25.013Z,-1.15
2018-02-11T09:05:24.917Z,-1.03
2018-02-11T09:06:25.110Z,-1.04
2018-02-11T09:07:26.205Z,-0.88
2018-02-11T09:08:25.112Z,-0.73
2018-02-11T09:09:25.052Z,-0.69
2018-02-11T09:10:24.988Z,-0.6
2018-02-11T09:11:25.708Z,-0.53
2018-02-11T09:12:25.635Z,-0.45
2018-02-11T09:13:25.172Z,-0.43
2018-02-11T09:14:25.034Z,-0.45
2018-02-11T09:15:24.991Z,-0.5
2018-02-11T09:16:24.962Z,-0.51
2018-02-11T09:17:25.271Z,-0.44
2018-02-11T09:18:24.959Z,-0.47
2018-02-11T09:19:25.788Z,-0.5
2018-02-11T09:20:25.783Z,-0.49
2018-02-11T09:21:25.749Z,-0.48
2018-02-11T09:22:26.077Z,-0.53
2018-02-11T09:23:25.880Z,-0.4
2018-02-11T09:24:25.798Z,-0.4
2018-02-11T09:25:26.278Z,-0.52
2018-02-11T09:26:26.230Z,-0.49
2018-02-11T09:27:25.779Z,-0.49
2018-02-11T09:28:25.731Z,-0.46
2018-02-11T09:29:25.843Z,-0.41
2018-02-11T09:30:26.446Z,-0.49
2018-02-11T09:31:25.845Z,-0.46
2018-02-11T09:32:25.812Z,-0.44
2018-02-11T09:33:26.051Z,-0.48
2018-02-11T09:34:25.672Z,-0.44
2018-02-11T09:35:25.758Z,-0.51
2018-02-11T09:36:26.583Z,-0.45
2018-02-11T09:37:25.975Z,-0.41
2018-02-11T09:38:25.837Z,-0.48
2018-02-11T09:39:25.966Z,-0.44
2018-02-11T09:40:25.827Z,-0.32
2018-02-11T09:41:25.915Z,-0.36
2018-02-11T09:42:26.103Z,-0.42
2018-02-11T09:43:25.970Z,-0.25
2018-02-11T09:44:25.795Z,-0.37
2018-02-11T09:45:26.062Z,-0.37
2018-02-11T09:46:25.845Z,-0.37
2018-02-11T09:47:25.891Z,-0.36
2018-02-11T09:48:27.008Z,-0.35
2018-02-11T09:49:25.591Z,-0.3
2018-02-11T09:50:26.101Z,-0.31
2018-02-11T09:51:26.598Z,-0.28
2018-02-11T09:52:26.990Z,-0.19
2018-02-11T09:53:26.554Z,-0.21
2018-02-11T09:54:26.337Z,-0.3
2018-02-11T09:55:25.705Z,-0.26
2018-02-11T09:56:26.196Z,-0.28
2018-02-11T09:57:26.368Z,-0.22
2018-02-11T09:58:25.553Z,-0.18
2018-02-11T09:59:26.152Z,-0.17
2018-02-11T10:00:26.465Z,-0.1
2018-02-11T10:01:25.749Z,-0.17
2018-02-11T10:02:26.834Z,-0.11
2018-02-11T10:03:26.153Z,-0.12
2018-02-11T10:04:25.563Z,-0.11
2018-02-11T10:05:25.637Z,-0.09
2018-02-11T10:06:27.316Z,-0.11
2018-02-11T10:07:26.295Z,-0.09
2018-02-11T10:08:26.194Z,-0.06
2018-02-11T10:09:26.481Z,-0.06
2018-02-11T10:10:26.254Z,-0.06
2018-02-11T10:11:25.671Z,-0.04
2018-02-11T10:12:27.266Z,0.02
2018-02-11T10:13:26.999Z,0.02
2018-02-11T10:14:26.494Z,0.06
2018-02-11T10:15:26.694Z,0.02
2018-02-11T10:16:25.688Z,0.08
2018-02-11T10:17:26.781Z,0.03
2018-02-11T10:18:26.311Z,0.1
2018-02-11T10:19:26.075Z,0.09
2018-02-11T10:20:26.068Z,0.12
2018-02-11T10:21:26.314Z,0.15
2018-02-11T10:22:26.118Z,0.21
2018-02-11T10:23:25.655Z,0.19
2018-02-11T10:24:26.605Z,0.19
2018-02-11T10:25:26.205Z,0.22
2018-02-11T10:26:26.146Z,0.18
2018-02-11T10:27:26.329Z,0.24
2018-02-11T10:28:25.955Z,0.23
2018-02-11T10:29:26.156Z,0.26
2018-02-11T10:30:27.044Z,0.28
2018-02-11T10:31:26.411Z,0.26
2018-02-11T10:32:26.028Z,0.29
2018-02-11T10:33:26.476Z,0.32
2018-02-11T10:34:26.169Z,0.3
2018-02-11T10:35:25.861Z,0.25
2018-02-11T10:36:26.501Z,0.32
2018-02-11T10:37:26.125Z,0.3
2018-02-11T10:38:26.128Z,0.23
2018-02-11T10:39:26.068Z,0.29
2018-02-11T10:40:25.810Z,0.28
2018-02-11T10:41:26.125Z,0.29
2018-02-11T10:42:26.670Z,0.35
2018-02-11T10:43:26.137Z,0.4
2018-02-11T10:44:26.125Z,0.45
2018-02-11T10:45:26.263Z,0.47
2018-02-11T10:46:26.006Z,0.45
2018-02-11T10:47:26.259Z,0.42
2018-02-11T10:48:26.833Z,0.43
2018-02-11T10:49:26.233Z,0.47
2018-02-11T10:50:26.411Z,0.47
2018-02-11T10:51:27.099Z,0.55
2018-02-11T10:52:26.626Z,0.54
2018-02-11T10:53:26.408Z,0.58
2018-02-11T10:54:26.672Z,0.56
2018-02-11T10:55:26.494Z,0.55
2018-02-11T10:56:26.461Z,0.57
2018-02-11T10:57:28.060Z,0.59
2018-02-11T10:58:26.415Z,0.7
2018-02-11T10:59:26.518Z,0.67
2018-02-11T11:00:26.632Z,0.68
2018-02-11T11:01:26.538Z,0.67
2018-02-11T11:02:26.639Z,0.72
2018-02-11T11:03:26.507Z,0.7
2018-02-11T11:04:26.583Z,0.71
2018-02-11T11:05:26.464Z,0.65
2018-02-11T11:06:26.435Z,0.69
2018-02-11T11:07:26.389Z,0.73
2018-02-11T11:08:26.262Z,0.74
2018-02-11T11:09:26.808Z,0.78
2018-02-11T11:10:26.666Z,0.73
2018-02-11T11:11:26.359Z,0.7
2018-02-11T11:12:26.659Z,0.81
2018-02-11T11:13:26.396Z,0.78
2018-02-11T11:15:26.541Z,0.78
2018-02-11T11:16:26.345Z,0.79
2018-02-11T11:17:26.864Z,0.83
2018-02-11T11:18:27.436Z,0.87
2018-02-11T11:19:26.320Z,0.76
2018-02-11T11:20:26.271Z,0.77
2018-02-11T11:21:26.001Z,0.72
2018-02-11T11:22:25.872Z,0.76
2018-02-11T11:23:25.892Z,0.76
2018-02-11T11:24:25.995Z,0.75
2018-02-11T11:25:25.899Z,0.78
2018-02-11T11:26:26.041Z,0.75
2018-02-11T11:27:26.074Z,0.85
2018-02-11T11:28:25.860Z,0.86
2018-02-11T11:29:25.823Z,0.86
2018-02-11T11:30:26.579Z,0.91
2018-02-11T11:31:25.892Z,0.85
2018-02-11T11:32:25.784Z,0.86
2018-02-11T11:33:25.974Z,0.88
2018-02-11T11:34:26.084Z,0.87
2018-02-11T11:35:26.399Z,0.87
2018-02-11T11:36:26.217Z,0.92
2018-02-11T11:37:26.148Z,0.87
2018-02-11T11:38:25.883Z,0.85
2018-02-11T11:39:26.066Z,0.8
2018-02-11T11:40:25.903Z,0.85
2018-02-11T11:41:25.836Z,0.93
2018-02-11T11:42:26.069Z,0.95
2018-02-11T11:43:25.849Z,0.96
2018-02-11T11:44:25.939Z,1.06
2018-02-11T11:45:26.372Z,1.03
2018-02-11T11:46:25.890Z,1.1
2018-02-11T11:47:25.774Z,1.05
2018-02-11T11:48:27.106Z,1.03
2018-02-11T11:49:25.823Z,1.08
2018-02-11T11:50:25.827Z,1.08
2018-02-11T11:51:26.075Z,1.06
2018-02-11T11:52:26.327Z,1.15
2018-02-11T11:53:25.928Z,1.04
2018-02-11T11:54:26.208Z,1.09
2018-02-11T11:55:26.518Z,1.09
2018-02-11T11:56:26.133Z,1.07
2018-02-11T11:57:26.288Z,1.09
2018-02-11T11:58:26.067Z,1.1
2018-02-11T11:59:27.114Z,1.07
2018-02-11T12:00:26.361Z,1.08
2018-02-11T12:01:26.317Z,1.14
2018-02-11T12:02:26.564Z,1.11
2018-02-11T12:03:26.989Z,1.14
2018-02-11T12:04:26.378Z,1.19
2018-02-11T12:05:26.693Z,1.23
2018-02-11T12:06:26.296Z,1.17
2018-02-11T12:07:26.452Z,1.28
2018-02-11T12:08:26.509Z,1.31
2018-02-11T12:09:26.140Z,1.24
2018-02-11T12:10:26.051Z,1.21
2018-02-11T12:11:27.461Z,1.21
2018-02-11T12:12:26.482Z,1.19
2018-02-11T12:13:26.384Z,1.16
2018-02-11T12:14:26.850Z,1.19
2018-02-11T12:15:25.928Z,1.23
2018-02-11T12:16:26.816Z,1.29
2018-02-11T12:17:26.409Z,1.25
2018-02-11T12:18:26.128Z,1.26
2018-02-11T12:19:26.307Z,1.33
2018-02-11T12:20:26.416Z,1.3
2018-02-11T12:21:26.660Z,1.32
2018-02-11T12:22:25.977Z,1.39
2018-02-11T12:23:25.682Z,1.3
2018-02-11T12:24:25.853Z,1.3
2018-02-11T12:25:25.928Z,1.3
2018-02-11T12:26:26.265Z,1.33
2018-02-11T12:27:26.234Z,1.27
2018-02-11T12:28:25.984Z,1.3
2018-02-11T12:29:25.791Z,1.34
2018-02-11T12:30:25.884Z,1.37
2018-02-11T12:31:26.082Z,1.39
2018-02-11T12:32:26.008Z,1.44
2018-02-11T12:33:26.115Z,1.42
2018-02-11T12:34:25.998Z,1.36
2018-02-11T12:35:25.888Z,1.38
2018-02-11T12:36:26.118Z,1.42
2018-02-11T12:37:25.837Z,1.45
2018-02-11T12:38:25.698Z,1.44
2018-02-11T12:39:25.760Z,1.44
2018-02-11T12:40:25.906Z,1.54
2018-02-11T12:41:26.140Z,1.53
2018-02-11T12:42:26.020Z,1.53
2018-02-11T12:43:25.926Z,1.62
2018-02-11T12:44:25.882Z,1.55
2018-02-11T12:45:26.298Z,1.6
2018-02-11T12:46:26.406Z,1.66
2018-02-11T12:47:25.818Z,1.68
2018-02-11T12:48:25.985Z,1.61
2018-02-11T12:49:25.772Z,1.73
2018-02-11T12:50:25.771Z,1.7
2018-02-11T12:51:25.826Z,1.73
2018-02-11T12:52:25.898Z,1.77
2018-02-11T12:53:25.952Z,1.74
2018-02-11T12:54:26.117Z,1.7
2018-02-11T12:55:25.837Z,1.71
2018-02-11T12:56:25.816Z,1.69
2018-02-11T12:57:25.951Z,1.64
2018-02-11T12:58:25.982Z,1.71
2018-02-11T12:59:25.980Z,1.74
2018-02-11T13:00:25.891Z,1.8
2018-02-11T13:01:26.032Z,1.84
2018-02-11T13:02:25.978Z,1.82
2018-02-11T13:03:25.846Z,1.81
2018-02-11T13:04:25.911Z,1.81
2018-02-11T13:05:25.895Z,1.78
2018-02-11T13:06:26.368Z,1.82
2018-02-11T13:07:25.881Z,1.83
2018-02-11T13:08:25.820Z,1.89
2018-02-11T13:09:25.855Z,1.84
2018-02-11T13:10:25.784Z,1.86